Time;durP1;ratioP1;P1;durP2;ratioP2;P2;SDS_P1;SDS_P2;PMS_P1;PMS_P2;Temp;Humidity;BMP_temperature;BMP_pressure;BME280_temperature;BME280_humidity;BME280_pressure;Samples;Min_cycle;Max_cycle;Signal;HPM_P1;HPM_P2
2021/09/15 00:01:53;;;;;;;26.03;24.03;;;21.50;99.90;;;;;;4936456;29;20454;-72
2021/09/15 00:04:20;;;;;;;24.80;22.90;;;21.50;99.90;;;;;;4936281;29;20449;-72
2021/09/15 00:06:48;;;;;;;25.97;24.00;;;21.50;99.90;;;;;;4936331;29;20453;-73
2021/09/15 00:09:14;;;;;;;24.00;22.53;;;21.40;99.90;;;;;;4936328;29;20457;-73
2021/09/15 00:11:41;;;;;;;25.37;23.47;;;21.40;99.90;;;;;;4936115;29;20504;-72
2021/09/15 00:14:08;;;;;;;22.07;20.47;;;21.40;99.90;;;;;;4935829;29;20491;-72
2021/09/15 00:16:34;;;;;;;25.33;23.27;;;21.30;99.90;;;;;;4936210;29;20458;-72
2021/09/15 00:19:01;;;;;;;25.10;23.20;;;21.30;99.90;;;;;;4935999;29;20457;-73
2021/09/15 00:21:29;;;;;;;23.40;21.90;;;21.30;99.90;;;;;;4935998;29;20462;-73
2021/09/15 00:23:57;;;;;;;23.00;21.50;;;21.30;99.90;;;;;;4935910;29;20860;-72
2021/09/15 00:26:24;;;;;;;23.63;22.00;;;21.30;99.90;;;;;;4936046;29;20462;-70
2021/09/15 00:28:50;;;;;;;23.57;22.03;;;21.30;99.90;;;;;;4936288;29;20457;-72
2021/09/15 00:31:17;;;;;;;24.30;22.70;;;21.50;99.90;;;;;;4935895;29;20865;-73
2021/09/15 00:33:44;;;;;;;25.73;23.63;;;21.60;99.90;;;;;;4935660;29;20493;-73
2021/09/15 00:36:10;;;;;;;24.23;22.43;;;21.60;99.90;;;;;;4935761;29;20460;-73
2021/09/15 00:38:37;;;;;;;24.67;23.03;;;21.50;99.90;;;;;;4935766;29;20449;-73
2021/09/15 00:41:05;;;;;;;22.90;21.50;;;21.50;99.90;;;;;;4935899;29;20453;-73
2021/09/15 00:43:32;;;;;;;25.43;23.77;;;21.50;99.90;;;;;;4935823;29;20454;-73
2021/09/15 00:45:58;;;;;;;26.50;24.40;;;21.40;99.90;;;;;;4935549;29;20465;-72
2021/09/15 00:48:25;;;;;;;26.50;24.70;;;21.40;99.90;;;;;;4935714;29;20859;-72
2021/09/15 00:50:53;;;;;;;24.63;23.13;;;21.30;99.90;;;;;;4935368;29;20885;-73
2021/09/15 00:53:19;;;;;;;24.73;23.00;;;21.30;99.90;;;;;;4935287;29;21034;-72
2021/09/15 00:55:46;;;;;;;26.07;24.40;;;21.30;99.90;;;;;;4935327;29;20959;-73
2021/09/15 00:58:14;;;;;;;25.53;23.70;;;21.30;99.90;;;;;;4935296;29;20465;-72
2021/09/15 01:00:41;;;;;;;25.50;23.63;;;21.30;99.90;;;;;;4935176;29;20481;-72
2021/09/15 01:03:07;;;;;;;27.17;25.20;;;21.30;99.90;;;;;;4935138;29;20493;-72
2021/09/15 01:05:34;;;;;;;24.83;22.70;;;21.30;99.90;;;;;;4935404;29;20457;-72
2021/09/15 01:08:01;;;;;;;23.43;21.93;;;21.20;99.90;;;;;;4934169;29;20457;-72
2021/09/15 01:10:28;;;;;;;24.20;22.70;;;21.10;99.90;;;;;;4934961;29;20955;-72
2021/09/15 01:12:55;;;;;;;27.37;25.67;;;21.00;99.90;;;;;;4934968;29;20493;-73
2021/09/15 01:15:23;;;;;;;26.30;24.47;;;21.00;99.90;;;;;;4935022;29;20869;-73
2021/09/15 01:17:50;;;;;;;26.27;24.47;;;20.90;99.90;;;;;;4935190;29;20454;-72
2021/09/15 01:20:16;;;;;;;26.20;24.60;;;20.90;99.90;;;;;;4934884;29;20449;-72
2021/09/15 01:22:44;;;;;;;27.77;25.80;;;20.90;99.90;;;;;;4934739;29;20449;-72
2021/09/15 01:25:11;;;;;;;26.60;24.93;;;20.80;99.90;;;;;;4934709;29;20457;-72
2021/09/15 01:27:38;;;;;;;27.20;25.27;;;20.80;99.90;;;;;;4934745;29;20458;-72
2021/09/15 03:28:45;;;;;;;25.20;23.60;;;20.50;99.90;;;;;;5953274;23;20412;-70
2021/09/15 03:31:11;;;;;;;25.50;24.00;;;20.50;99.90;;;;;;4947737;28;20503;-71
2021/09/15 03:33:38;;;;;;;24.93;23.33;;;20.60;99.90;;;;;;4938268;28;20501;-70
2021/09/15 03:36:05;;;;;;;25.10;23.50;;;20.60;99.90;;;;;;4940207;29;20469;-70
2021/09/15 03:38:32;;;;;;;26.37;24.77;;;20.70;99.90;;;;;;4941718;29;20453;-70
2021/09/15 03:40:58;;;;;;;24.77;23.03;;;20.70;99.90;;;;;;4935907;29;20807;-70
2021/09/15 03:43:25;;;;;;;30.00;27.50;;;20.70;99.90;;;;;;4935699;29;20515;-71
2021/09/15 03:45:53;;;;;;;31.70;29.60;;;20.60;99.90;;;;;;4935473;29;20512;-70
2021/09/15 03:48:20;;;;;;;33.10;31.20;;;20.50;99.90;;;;;;4935757;29;20460;-71
2021/09/15 03:50:46;;;;;;;33.40;31.53;;;20.40;99.90;;;;;;4935764;29;20449;-70
2021/09/15 03:53:13;;;;;;;33.17;31.27;;;20.30;99.90;;;;;;4935392;29;20585;-71
2021/09/15 03:55:40;;;;;;;34.27;31.97;;;20.20;99.90;;;;;;4935324;29;20453;-71
2021/09/15 03:58:06;;;;;;;35.00;32.80;;;20.20;99.90;;;;;;4935389;29;20803;-70
2021/09/15 04:00:33;;;;;;;34.63;32.50;;;20.10;99.90;;;;;;4935529;29;20802;-71
2021/09/15 04:03:01;;;;;;;34.63;32.50;;;20.10;99.90;;;;;;4935661;29;20453;-70
2021/09/15 04:05:28;;;;;;;35.53;33.50;;;20.10;99.90;;;;;;4935154;29;20450;-72
2021/09/15 04:07:54;;;;;;;35.20;33.00;;;20.10;99.90;;;;;;4935205;29;20462;-73
2021/09/15 04:10:21;;;;;;;34.60;32.60;;;20.10;99.90;;;;;;4935727;29;20461;-73
2021/09/15 04:12:48;;;;;;;34.73;32.67;;;20.00;99.90;;;;;;4935345;29;20457;-73
2021/09/15 04:15:15;;;;;;;35.53;33.20;;;20.00;99.90;;;;;;4935252;29;20453;-73
2021/09/15 04:17:41;;;;;;;35.97;33.47;;;20.00;99.90;;;;;;4935114;29;20468;-73
2021/09/15 04:20:11;;;;;;;34.33;32.10;;;20.00;99.90;;;;;;4935101;29;20823;-74
2021/09/15 04:22:39;;;;;;;35.10;33.10;;;20.00;99.90;;;;;;4935129;29;20469;-73
2021/09/15 04:33:16;;;;;;;31.27;29.20;;;20.10;99.90;;;;;;4954399;28;20849;-73
2021/09/15 04:35:44;;;;;;;30.80;28.90;;;20.10;99.90;;;;;;4953912;28;20947;-74
2021/09/15 04:38:11;;;;;;;31.63;29.83;;;20.10;99.90;;;;;;4964620;28;20699;-73
2021/09/15 04:40:38;;;;;;;32.30;30.00;;;20.10;99.90;;;;;;4953867;28;21319;-73
2021/09/15 04:43:04;;;;;;;31.13;29.23;;;20.10;99.90;;;;;;4953730;28;20459;-73
2021/09/15 04:45:31;;;;;;;31.10;28.93;;;20.10;99.90;;;;;;4954049;29;20504;-73
2021/09/15 04:47:58;;;;;;;30.30;28.20;;;20.10;99.90;;;;;;4953671;28;20499;-73
2021/09/15 04:50:24;;;;;;;29.87;27.73;;;20.10;99.90;;;;;;4953591;28;20507;-72
2021/09/15 04:52:52;;;;;;;29.70;27.50;;;20.10;99.90;;;;;;4953777;28;20868;-72
2021/09/15 04:55:19;;;;;;;31.03;28.87;;;20.00;99.90;;;;;;4953886;28;20479;-73
2021/09/15 04:57:46;;;;;;;32.23;30.23;;;20.00;99.90;;;;;;4953813;28;20456;-73
2021/09/15 05:00:13;;;;;;;34.93;32.43;;;20.00;99.90;;;;;;4953372;29;20452;-73
2021/09/15 05:02:40;;;;;;;36.43;33.70;;;20.00;99.90;;;;;;4953304;29;20844;-73
2021/09/15 05:05:08;;;;;;;34.30;31.73;;;20.00;99.90;;;;;;4953618;29;20508;-72
2021/09/15 05:07:34;;;;;;;34.30;32.17;;;20.00;99.90;;;;;;4953676;28;20460;-73
2021/09/15 05:10:03;;;;;;;33.80;31.70;;;20.00;99.90;;;;;;4953482;28;20460;-73
2021/09/15 05:12:30;;;;;;;33.27;31.13;;;20.00;99.90;;;;;;4953573;28;20504;-74
2021/09/15 05:14:58;;;;;;;38.97;36.47;;;20.10;99.90;;;;;;4953125;28;20496;-74
2021/09/15 05:17:25;;;;;;;42.73;39.90;;;20.00;99.90;;;;;;4953187;29;20456;-75
2021/09/15 05:19:52;;;;;;;41.50;38.90;;;20.00;99.90;;;;;;4953001;28;20484;-75
2021/09/15 05:22:19;;;;;;;37.90;35.30;;;20.00;99.90;;;;;;4953085;28;20449;-73
2021/09/15 05:24:45;;;;;;;40.13;37.47;;;20.00;99.90;;;;;;4953175;29;20475;-73
2021/09/15 05:27:13;;;;;;;38.50;36.20;;;20.00;99.90;;;;;;4953007;28;20456;-73
2021/09/15 05:29:40;;;;;;;39.80;37.20;;;20.00;99.90;;;;;;4952599;29;20751;-73
2021/09/15 05:32:07;;;;;;;36.40;34.03;;;20.00;99.90;;;;;;4952839;28;20457;-74
2021/09/15 05:34:34;;;;;;;39.50;37.00;;;20.00;99.90;;;;;;4953029;29;20520;-75
2021/09/15 05:37:01;;;;;;;38.87;36.40;;;20.00;99.90;;;;;;4952524;28;20448;-74
2021/09/15 05:39:28;;;;;;;39.50;37.10;;;20.00;99.90;;;;;;4963194;28;20475;-74
2021/09/15 05:41:54;;;;;;;37.93;35.70;;;20.00;99.90;;;;;;4952537;28;20939;-74
2021/09/15 05:44:22;;;;;;;36.93;34.67;;;20.00;99.90;;;;;;4952497;28;20824;-73
2021/09/15 05:46:49;;;;;;;38.47;36.00;;;20.00;99.90;;;;;;4952700;28;20504;-73
2021/09/15 05:49:16;;;;;;;37.57;35.17;;;20.00;99.90;;;;;;4952392;28;20452;-73
2021/09/15 05:51:42;;;;;;;39.10;36.13;;;20.00;99.90;;;;;;4952474;29;20457;-75
2021/09/15 05:54:09;;;;;;;39.07;36.67;;;19.90;99.90;;;;;;4951876;28;20860;-75
2021/09/15 05:56:38;;;;;;;39.37;37.00;;;19.90;99.90;;;;;;4952412;28;20503;-76
2021/09/15 05:59:05;;;;;;;41.10;38.30;;;19.90;99.90;;;;;;4952901;28;20500;-81
2021/09/15 06:01:33;;;;;;;39.73;37.33;;;19.90;99.90;;;;;;4953241;29;20460;-78
2021/09/15 06:03:59;;;;;;;41.33;38.63;;;19.80;99.90;;;;;;4952889;28;20461;-79
2021/09/15 06:06:26;;;;;;;40.87;38.17;;;19.90;99.90;;;;;;4950923;28;20464;-78
2021/09/15 06:08:53;;;;;;;40.90;38.30;;;19.90;99.90;;;;;;4952565;28;20483;-79
2021/09/15 06:11:20;;;;;;;42.80;40.00;;;19.90;99.90;;;;;;4952407;28;21009;-79
2021/09/15 06:13:47;;;;;;;41.17;38.33;;;19.80;99.90;;;;;;4952654;28;20491;-80
2021/09/15 06:16:14;;;;;;;44.37;41.07;;;19.80;99.90;;;;;;4953074;29;20508;-81
2021/09/15 06:18:42;;;;;;;45.60;42.60;;;19.80;99.90;;;;;;4953283;28;20527;-79
2021/09/15 06:21:09;;;;;;;46.33;43.03;;;19.70;99.90;;;;;;4953128;28;20516;-78
2021/09/15 06:23:36;;;;;;;45.30;42.10;;;19.70;99.90;;;;;;4953375;29;20480;-78
2021/09/15 06:26:02;;;;;;;47.33;44.10;;;19.70;99.90;;;;;;4952991;29;20798;-80
2021/09/15 06:28:30;;;;;;;48.13;44.83;;;19.70;99.90;;;;;;4952707;28;20480;-79
2021/09/15 06:30:57;;;;;;;47.93;44.73;;;19.70;99.90;;;;;;4950874;28;20519;-79
2021/09/15 06:33:24;;;;;;;47.60;44.50;;;19.70;99.90;;;;;;4954671;28;20527;-79
2021/09/15 06:35:52;;;;;;;47.33;44.13;;;19.70;99.90;;;;;;4952451;29;20444;-78
2021/09/15 06:38:19;;;;;;;46.30;43.20;;;19.70;99.90;;;;;;4952725;28;20988;-81
2021/09/15 06:40:46;;;;;;;47.20;43.90;;;19.70;99.90;;;;;;4952491;28;20977;-79
2021/09/15 06:43:13;;;;;;;44.23;41.40;;;19.70;99.90;;;;;;4952457;28;20449;-80
2021/09/15 06:45:40;;;;;;;46.63;43.50;;;19.70;99.90;;;;;;4952206;29;20448;-79
2021/09/15 06:48:06;;;;;;;46.23;43.10;;;19.70;99.90;;;;;;4952609;29;20522;-78
2021/09/15 06:50:33;;;;;;;45.90;42.70;;;19.70;99.90;;;;;;4952625;29;20464;-78
2021/09/15 06:53:01;;;;;;;47.13;43.87;;;19.70;99.90;;;;;;4952571;28;20492;-77
2021/09/15 06:55:28;;;;;;;45.53;42.47;;;19.70;99.90;;;;;;4952289;29;20492;-77
2021/09/15 06:57:54;;;;;;;46.70;43.60;;;19.70;99.90;;;;;;4952447;28;20456;-77
2021/09/15 07:00:21;;;;;;;47.70;44.20;;;19.70;99.90;;;;;;4952452;28;20512;-76
2021/09/15 07:02:48;;;;;;;44.57;41.37;;;19.70;99.90;;;;;;4952451;28;20453;-77
2021/09/15 07:05:16;;;;;;;44.37;41.60;;;19.70;99.90;;;;;;4954465;28;20452;-77
2021/09/15 07:07:43;;;;;;;43.93;41.33;;;19.70;99.90;;;;;;4956012;29;20452;-77
2021/09/15 07:10:11;;;;;;;44.83;41.97;;;19.60;99.90;;;;;;4955734;28;21009;-76
2021/09/15 07:12:39;;;;;;;43.47;40.67;;;19.70;99.90;;;;;;4955485;28;20886;-76
2021/09/15 07:15:07;;;;;;;42.83;40.40;;;19.60;99.90;;;;;;4955408;28;20547;-76
2021/09/15 07:17:34;;;;;;;42.60;39.90;;;19.60;99.90;;;;;;4955812;28;20460;-76
2021/09/15 07:20:01;;;;;;;44.03;41.23;;;19.70;99.90;;;;;;4955888;28;20487;-76
2021/09/15 07:22:27;;;;;;;42.60;39.57;;;19.80;99.90;;;;;;4955421;28;20828;-75
2021/09/15 07:24:54;;;;;;;41.70;39.13;;;19.80;99.90;;;;;;4955580;28;20452;-75
2021/09/15 07:27:22;;;;;;;40.07;37.67;;;19.90;99.90;;;;;;4955514;28;20456;-74
2021/09/15 07:29:49;;;;;;;43.53;40.73;;;19.90;99.90;;;;;;4953653;28;20861;-75
2021/09/15 07:32:16;;;;;;;40.87;37.83;;;19.90;99.90;;;;;;4955341;29;20464;-75
2021/09/15 07:34:45;;;;;;;37.93;35.23;;;19.90;99.90;;;;;;4955267;28;20488;-75
2021/09/15 07:37:12;;;;;;;36.10;33.77;;;20.00;99.90;;;;;;4955081;28;20457;-74
2021/09/15 07:39:38;;;;;;;36.07;33.43;;;20.00;99.90;;;;;;4955138;28;20584;-74
2021/09/15 07:42:05;;;;;;;32.47;30.37;;;20.10;99.90;;;;;;4954916;28;20452;-75
2021/09/15 07:44:34;;;;;;;32.97;30.70;;;20.30;99.90;;;;;;4955284;29;20456;-75
2021/09/15 07:47:01;;;;;;;36.37;33.70;;;20.30;99.90;;;;;;4955300;28;20455;-75
2021/09/15 07:49:28;;;;;;;34.87;32.33;;;20.40;99.90;;;;;;4954747;28;20452;-75
2021/09/15 07:51:54;;;;;;;35.20;32.40;;;20.40;99.90;;;;;;4955144;28;20461;-75
2021/09/15 07:54:21;;;;;;;32.47;30.07;;;20.60;99.90;;;;;;4954859;28;20829;-75
2021/09/15 07:56:48;;;;;;;30.33;28.20;;;20.60;99.90;;;;;;4955263;28;20461;-74
2021/09/15 07:59:14;;;;;;;27.50;25.80;;;20.70;99.90;;;;;;4954777;28;20456;-75
2021/09/15 08:01:42;;;;;;;27.00;25.37;;;20.90;99.90;;;;;;4954448;29;20457;-75
2021/09/15 08:04:09;;;;;;;25.70;24.00;;;20.80;99.90;;;;;;4954628;29;20898;-76
2021/09/15 08:06:36;;;;;;;24.87;23.20;;;20.80;99.90;;;;;;4954741;28;20480;-76
2021/09/15 08:09:03;;;;;;;24.53;23.00;;;20.90;99.90;;;;;;4954953;29;20448;-76
2021/09/15 08:11:29;;;;;;;24.20;22.70;;;20.80;99.90;;;;;;4954557;29;20471;-76
2021/09/15 08:13:56;;;;;;;25.10;23.40;;;20.80;99.90;;;;;;4954288;28;20457;-77
2021/09/15 08:16:23;;;;;;;25.00;23.20;;;20.80;99.90;;;;;;4953605;28;20456;-76
2021/09/15 08:18:51;;;;;;;24.57;22.30;;;20.90;99.90;;;;;;4955183;28;20452;-76
2021/09/15 08:21:17;;;;;;;25.17;23.27;;;20.90;99.90;;;;;;4955020;29;20465;-77
2021/09/15 08:23:44;;;;;;;28.63;24.97;;;20.80;99.90;;;;;;4955027;29;20456;-76
2021/09/15 08:26:11;;;;;;;24.43;22.63;;;20.90;99.90;;;;;;4954881;28;20448;-76
2021/09/15 08:28:39;;;;;;;24.10;22.77;;;20.90;99.90;;;;;;4955132;29;20503;-75
2021/09/15 08:31:06;;;;;;;22.33;20.83;;;21.00;99.90;;;;;;4956185;28;20511;-74
2021/09/15 08:33:33;;;;;;;21.73;20.53;;;21.00;99.90;;;;;;4959956;28;20461;-75
2021/09/15 08:36:01;;;;;;;22.20;20.90;;;21.00;99.90;;;;;;4969440;28;20857;-74
2021/09/15 08:38:28;;;;;;;21.60;20.30;;;20.90;99.90;;;;;;4966423;28;20452;-75
2021/09/15 08:40:55;;;;;;;22.03;20.83;;;20.80;99.90;;;;;;4955386;29;20484;-75
2021/09/15 08:43:22;;;;;;;23.23;21.93;;;20.90;99.90;;;;;;4954158;29;20958;-75
2021/09/15 08:45:49;;;;;;;26.43;24.67;;;20.90;99.90;;;;;;4954505;28;20991;-74
2021/09/15 08:48:19;;;;;;;34.47;32.30;;;20.80;99.90;;;;;;4954391;28;20511;-74
2021/09/15 08:50:49;;;;;;;36.60;34.50;;;20.70;99.90;;;;;;4953992;29;20464;-76
2021/09/15 08:53:17;;;;;;;40.57;38.20;;;20.50;99.90;;;;;;4954816;28;20467;-77
2021/09/15 08:55:46;;;;;;;38.27;36.00;;;20.40;99.90;;;;;;4954210;28;20487;-79
2021/09/15 08:58:14;;;;;;;38.73;36.57;;;20.40;99.90;;;;;;4954221;28;20456;-78
2021/09/15 09:00:40;;;;;;;39.60;37.17;;;20.30;99.90;;;;;;4953989;28;20484;-78
2021/09/15 09:03:07;;;;;;;38.67;36.47;;;20.30;99.90;;;;;;4954399;28;20461;-80
2021/09/15 09:05:34;;;;;;;39.87;37.33;;;20.20;99.90;;;;;;4954081;28;20468;-82
2021/09/15 09:08:01;;;;;;;39.17;36.87;;;20.20;99.90;;;;;;4954207;29;20461;-81
2021/09/15 09:10:32;;;;;;;39.23;36.90;;;20.10;99.90;;;;;;4953626;28;20492;-81
2021/09/15 09:12:59;;;;;;;39.57;37.17;;;20.10;99.90;;;;;;4954021;28;20535;-78
2021/09/15 09:15:27;;;;;;;42.27;39.50;;;20.00;99.90;;;;;;4953608;28;20492;-77
2021/09/15 09:17:58;;;;;;;41.70;39.20;;;20.00;99.90;;;;;;4953661;28;20452;-78
2021/09/15 09:20:28;;;;;;;42.23;39.57;;;19.90;99.90;;;;;;4953440;29;20452;-78
2021/09/15 09:23:04;;;;;;;41.87;39.37;;;19.90;99.90;;;;;;4953730;29;20517;-77
2021/09/15 09:25:36;;;;;;;39.63;37.10;;;19.90;99.90;;;;;;4953661;29;20480;-78
2021/09/15 09:28:15;;;;;;;38.03;36.03;;;19.90;99.90;;;;;;4952876;28;20472;-80
2021/09/15 09:30:42;;;;;;;37.23;34.83;;;19.90;99.90;;;;;;4953239;29;20491;-82
2021/09/15 09:33:09;;;;;;;39.60;36.93;;;19.80;99.90;;;;;;4953676;28;20452;-81
2021/09/15 09:35:43;;;;;;;40.43;38.13;;;19.80;99.90;;;;;;4953381;28;20499;-81
2021/09/15 09:38:18;;;;;;;40.77;38.30;;;19.70;99.90;;;;;;4953415;28;20502;-81
2021/09/15 09:40:59;;;;;;;44.00;41.07;;;19.60;99.90;;;;;;4953517;29;20804;-86
2021/09/15 09:43:27;;;;;;;41.93;39.23;;;19.60;99.90;;;;;;4953268;28;20460;-81
2021/09/15 09:45:53;;;;;;;40.97;38.77;;;19.50;99.90;;;;;;4953613;28;20445;-80
2021/09/15 09:48:37;;;;;;;41.43;38.93;;;19.50;99.90;;;;;;4952987;28;20868;-79
2021/09/15 09:51:21;;;;;;;41.23;38.50;;;19.40;99.90;;;;;;4953527;29;20465;-79
2021/09/15 09:53:48;;;;;;;45.77;42.07;;;19.50;99.90;;;;;;4953304;29;20484;-83
2021/09/15 09:56:17;;;;;;;44.57;41.37;;;19.50;99.90;;;;;;4953372;29;20517;-83
2021/09/15 09:58:45;;;;;;;42.40;39.70;;;19.60;99.90;;;;;;4953241;28;20461;-80
2021/09/15 10:01:16;;;;;;;44.07;41.07;;;19.60;99.90;;;;;;4953350;28;20457;-78
2021/09/15 10:03:44;;;;;;;42.97;40.47;;;19.70;99.90;;;;;;4953129;29;20796;-78
2021/09/15 10:06:11;;;;;;;45.10;40.60;;;19.80;99.90;;;;;;4953369;28;20456;-77
2021/09/15 10:08:38;;;;;;;41.73;38.90;;;19.90;99.90;;;;;;4952962;28;20467;-77
2021/09/15 10:11:05;;;;;;;43.97;40.83;;;19.90;99.90;;;;;;4953122;29;20866;-78
2021/09/15 10:13:33;;;;;;;34.70;32.60;;;20.10;99.90;;;;;;4953050;29;20453;-77
2021/09/15 10:16:04;;;;;;;29.50;27.70;;;20.20;99.90;;;;;;4952730;28;20551;-77
2021/09/15 10:18:32;;;;;;;30.03;28.10;;;20.30;99.90;;;;;;4953221;28;20461;-76
2021/09/15 10:21:00;;;;;;;25.20;23.67;;;20.60;99.90;;;;;;4953165;29;20820;-75
2021/09/15 10:23:37;;;;;;;22.73;21.53;;;20.70;99.90;;;;;;4953055;28;20461;-76
2021/09/15 10:26:30;;;;;;;22.87;21.57;;;21.00;99.90;;;;;;4953006;28;20947;-77
2021/09/15 10:29:28;;;;;;;21.10;19.67;;;21.20;99.90;;;;;;4952942;28;20539;-76
2021/09/15 10:31:58;;;;;;;21.60;20.50;;;21.40;99.90;;;;;;4953137;28;20463;-78
2021/09/15 10:34:53;;;;;;;22.87;19.63;;;21.50;99.90;;;;;;4953201;28;20460;-77
2021/09/15 10:37:51;;;;;;;20.07;18.77;;;21.80;99.90;;;;;;4953074;28;20471;-78
2021/09/15 10:40:32;;;;;;;21.10;19.80;;;21.80;99.90;;;;;;4954968;28;20939;-77
2021/09/15 10:42:59;;;;;;;21.90;20.37;;;21.70;99.90;;;;;;4956755;28;21005;-77
2021/09/15 10:45:30;;;;;;;22.90;21.13;;;21.70;99.90;;;;;;4955446;28;20477;-76
2021/09/15 10:47:59;;;;;;;20.70;19.40;;;21.90;99.90;;;;;;4970664;28;20828;-75
2021/09/15 10:50:53;;;;;;;20.87;19.40;;;21.70;99.90;;;;;;4962645;28;20448;-73
2021/09/15 10:53:22;;;;;;;21.03;19.53;;;21.60;99.90;;;;;;4958200;28;20452;-75
2021/09/15 10:55:51;;;;;;;20.03;18.83;;;21.60;99.90;;;;;;4975965;28;20833;-74
2021/09/15 10:58:20;;;;;;;18.83;17.83;;;21.40;99.90;;;;;;4976252;28;20551;-74
2021/09/15 11:00:50;;;;;;;20.93;19.77;;;21.50;99.90;;;;;;4985680;28;20455;-74
2021/09/15 11:03:25;;;;;;;20.23;18.97;;;21.40;99.90;;;;;;4981711;28;20791;-74
2021/09/15 11:05:53;;;;;;;19.97;18.70;;;21.40;99.90;;;;;;4975688;28;20458;-75
2021/09/15 11:08:38;;;;;;;20.83;19.60;;;21.60;99.90;;;;;;4975265;28;20509;-73
2021/09/15 11:11:07;;;;;;;20.80;19.50;;;21.70;99.90;;;;;;4975845;28;20447;-73
2021/09/15 11:13:52;;;;;;;21.37;19.70;;;21.90;99.90;;;;;;4973845;28;20846;-74
2021/09/15 11:16:32;;;;;;;20.07;19.00;;;22.30;99.90;;;;;;4975540;28;20487;-74
2021/09/15 11:19:01;;;;;;;20.30;19.00;;;22.40;99.90;;;;;;4973007;28;20463;-74
2021/09/15 11:21:30;;;;;;;18.90;17.80;;;22.30;99.90;;;;;;4956149;29;20456;-75
2021/09/15 11:24:00;;;;;;;20.10;19.00;;;22.30;99.90;;;;;;4956073;28;21049;-74
2021/09/15 11:26:45;;;;;;;19.10;18.20;;;22.30;99.90;;;;;;4955804;28;20488;-74
2021/09/15 11:29:12;;;;;;;19.57;18.37;;;22.40;99.90;;;;;;4955617;29;20472;-74
2021/09/15 11:31:42;;;;;;;19.43;18.20;;;22.40;99.90;;;;;;4956055;28;20581;-73
2021/09/15 11:34:11;;;;;;;19.20;18.00;;;22.30;99.90;;;;;;4956075;28;20463;-73
2021/09/15 11:36:39;;;;;;;19.00;17.90;;;22.30;99.90;;;;;;4955705;29;21002;-74
2021/09/15 11:39:08;;;;;;;19.73;18.63;;;22.50;99.90;;;;;;4955787;28;20453;-73
2021/09/15 11:41:35;;;;;;;18.30;17.13;;;22.60;99.90;;;;;;4955803;29;20456;-73
2021/09/15 11:44:02;;;;;;;18.33;17.43;;;22.70;99.90;;;;;;4955799;28;20468;-73
2021/09/15 11:46:36;;;;;;;19.77;18.57;;;22.90;99.90;;;;;;4955725;28;20452;-73
2021/09/15 11:49:05;;;;;;;20.10;18.90;;;22.80;99.90;;;;;;4955786;29;20515;-73
2021/09/15 11:51:34;;;;;;;17.67;16.77;;;22.50;99.90;;;;;;4954452;28;20812;-73
2021/09/15 11:54:05;;;;;;;19.10;18.03;;;22.60;99.90;;;;;;4965058;28;20460;-73
2021/09/15 11:56:36;;;;;;;18.83;17.87;;;22.70;99.90;;;;;;4974165;28;20857;-73
2021/09/15 11:59:03;;;;;;;18.57;17.43;;;22.60;99.90;;;;;;4974573;28;20459;-73
2021/09/15 12:01:32;;;;;;;17.73;16.83;;;22.60;99.90;;;;;;4974189;28;20486;-73
2021/09/15 12:04:02;;;;;;;19.50;18.40;;;22.50;99.90;;;;;;4963675;28;20468;-73
2021/09/15 12:06:31;;;;;;;17.63;16.83;;;22.40;99.90;;;;;;4954834;29;20916;-73
2021/09/15 12:08:58;;;;;;;19.93;18.70;;;22.30;99.90;;;;;;4954773;28;20456;-73
2021/09/15 12:11:30;;;;;;;19.00;18.10;;;22.40;99.90;;;;;;4954322;28;20468;-73
2021/09/15 12:13:59;;;;;;;19.07;18.20;;;22.50;99.90;;;;;;4954526;28;20882;-73
2021/09/15 12:16:30;;;;;;;18.73;17.73;;;22.70;99.90;;;;;;4954657;28;20887;-72
2021/09/15 12:18:57;;;;;;;18.60;17.27;;;22.70;99.90;;;;;;4954515;29;20464;-73
2021/09/15 12:21:26;;;;;;;19.60;18.50;;;22.80;99.90;;;;;;4954171;28;20460;-73
2021/09/15 12:24:02;;;;;;;19.47;18.27;;;22.80;99.90;;;;;;4954591;28;20488;-73
2021/09/15 12:26:30;;;;;;;19.60;18.50;;;22.80;99.90;;;;;;4954664;29;20449;-73
2021/09/15 12:29:02;;;;;;;20.20;18.63;;;22.80;99.90;;;;;;4954464;29;20947;-73
2021/09/15 12:31:43;;;;;;;19.43;17.93;;;22.60;99.90;;;;;;4954395;29;20453;-73
2021/09/15 12:34:10;;;;;;;20.37;19.00;;;22.60;99.90;;;;;;4954732;29;20863;-73
2021/09/15 12:36:37;;;;;;;19.97;18.87;;;22.60;99.90;;;;;;4954386;29;20499;-72
2021/09/15 12:39:13;;;;;;;21.17;19.87;;;22.60;99.90;;;;;;4955639;28;20460;-72
2021/09/15 12:41:55;;;;;;;19.00;18.00;;;22.70;99.90;;;;;;4955790;29;20456;-73
2021/09/15 12:44:25;;;;;;;19.17;17.83;;;22.80;99.90;;;;;;4954377;29;20475;-74
2021/09/15 12:46:54;;;;;;;20.60;19.30;;;23.10;99.90;;;;;;4954482;29;20449;-74
2021/09/15 12:49:28;;;;;;;19.40;18.20;;;23.40;99.90;;;;;;4954628;28;20464;-74
2021/09/15 12:52:03;;;;;;;18.87;17.87;;;23.60;99.90;;;;;;4954640;28;20452;-74
2021/09/15 12:54:31;;;;;;;19.47;18.00;;;23.70;99.90;;;;;;4954242;28;20467;-73
2021/09/15 12:57:19;;;;;;;19.67;18.37;;;23.90;99.90;;;;;;4963065;28;20495;-73
2021/09/15 12:59:46;;;;;;;17.50;16.40;;;24.10;99.90;;;;;;4954383;29;20457;-73
2021/09/15 13:02:28;;;;;;;20.13;18.93;;;24.10;99.90;;;;;;4954193;28;20458;-73
2021/09/15 13:04:56;;;;;;;17.90;16.90;;;24.10;99.90;;;;;;4954380;29;20471;-74
2021/09/15 13:07:23;;;;;;;18.57;17.50;;;24.00;99.90;;;;;;4954607;29;20499;-74
2021/09/15 13:09:51;;;;;;;19.27;18.00;;;24.20;99.90;;;;;;4954252;28;20463;-73
2021/09/15 13:12:19;;;;;;;18.73;17.60;;;24.40;99.90;;;;;;4954549;28;20895;-74
2021/09/15 13:14:49;;;;;;;19.13;17.80;;;24.60;99.90;;;;;;4954129;28;20460;-74
2021/09/15 13:17:16;;;;;;;18.10;17.00;;;24.70;99.90;;;;;;4954265;28;20584;-74
2021/09/15 13:19:43;;;;;;;17.67;16.30;;;24.90;99.90;;;;;;4954383;29;20448;-73
2021/09/15 13:22:10;;;;;;;19.00;17.90;;;24.90;99.90;;;;;;4954147;28;20456;-74
2021/09/15 13:24:37;;;;;;;18.70;17.67;;;24.80;99.90;;;;;;4953848;28;20453;-73
2021/09/15 13:27:06;;;;;;;17.43;16.60;;;25.00;99.90;;;;;;4953817;29;20456;-74
2021/09/15 13:29:34;;;;;;;18.30;17.30;;;25.00;99.90;;;;;;4953884;29;20829;-74
2021/09/15 13:32:01;;;;;;;17.67;16.87;;;25.10;99.90;;;;;;4953841;28;20516;-74
2021/09/15 13:34:28;;;;;;;17.20;16.40;;;25.00;99.90;;;;;;4953545;28;21006;-74
2021/09/15 13:36:55;;;;;;;19.83;18.60;;;24.90;99.90;;;;;;4953436;28;20500;-74
2021/09/15 13:39:21;;;;;;;17.30;16.30;;;25.00;99.90;;;;;;4953706;28;20459;-74
2021/09/15 13:41:48;;;;;;;18.70;17.40;;;25.10;99.90;;;;;;4954078;28;20461;-74
2021/09/15 13:44:16;;;;;;;17.13;16.03;;;25.10;99.90;;;;;;4951955;28;20452;-74
2021/09/15 13:46:43;;;;;;;16.93;15.83;;;24.80;99.90;;;;;;4953538;29;20449;-73
2021/09/15 13:49:10;;;;;;;16.57;15.80;;;24.50;99.90;;;;;;4953606;28;20885;-73
2021/09/15 13:51:37;;;;;;;17.07;16.07;;;24.40;99.90;;;;;;4952993;29;20939;-74
2021/09/15 13:54:04;;;;;;;16.10;15.30;;;24.40;99.90;;;;;;4953905;28;20448;-74
2021/09/15 13:56:32;;;;;;;17.30;16.07;;;24.30;99.90;;;;;;4953571;29;20861;-74
2021/09/15 13:58:58;;;;;;;17.13;16.17;;;24.30;99.90;;;;;;4953088;28;20456;-74
2021/09/15 14:01:26;;;;;;;17.07;16.27;;;24.40;99.90;;;;;;4952996;28;20928;-74
2021/09/15 14:03:53;;;;;;;17.70;16.60;;;24.50;99.90;;;;;;4953208;28;20460;-74
2021/09/15 14:06:20;;;;;;;17.23;16.10;;;24.50;99.90;;;;;;4953040;28;21018;-74
2021/09/15 14:08:46;;;;;;;17.20;16.20;;;24.60;99.90;;;;;;4951387;28;20491;-74
2021/09/15 14:11:14;;;;;;;17.53;16.40;;;24.80;99.90;;;;;;4959869;28;20456;-74
2021/09/15 14:13:41;;;;;;;17.83;16.83;;;24.70;99.90;;;;;;4950846;29;20499;-74
2021/09/15 14:16:09;;;;;;;19.67;18.17;;;24.80;99.90;;;;;;4952723;29;20817;-74
2021/09/15 14:18:37;;;;;;;18.90;17.20;;;24.70;99.90;;;;;;4953068;28;20533;-74
2021/09/15 14:21:04;;;;;;;18.33;17.23;;;24.70;99.90;;;;;;4952992;28;20461;-73
2021/09/15 14:23:31;;;;;;;20.07;17.93;;;24.60;99.90;;;;;;4953249;29;20507;-73
2021/09/15 14:25:58;;;;;;;18.80;17.53;;;24.30;99.90;;;;;;4953249;28;20519;-73
2021/09/15 14:28:25;;;;;;;19.40;17.83;;;24.10;99.90;;;;;;4952798;28;20472;-74
2021/09/15 14:30:51;;;;;;;18.30;16.90;;;24.30;99.90;;;;;;4952800;29;20484;-73
2021/09/15 14:33:18;;;;;;;18.37;16.93;;;24.30;99.90;;;;;;4952826;28;20507;-74
2021/09/15 14:35:46;;;;;;;20.40;18.50;;;24.30;99.90;;;;;;4953057;28;20453;-72
2021/09/15 14:38:13;;;;;;;23.60;21.30;;;24.10;99.90;;;;;;4952682;29;20890;-72
2021/09/15 14:40:39;;;;;;;18.10;17.10;;;23.90;99.90;;;;;;4952920;28;20961;-73
2021/09/15 14:43:06;;;;;;;19.70;17.67;;;23.90;99.90;;;;;;4952721;28;20457;-72